sensor_id;sensor_type;location;lat;lon;timestamp;P1;durP1;ratioP1;P2;durP2;ratioP2
62903;SDS011;49000;50.698;13.322;2023-08-24T00:01:03;7.40;;;5.60;;
62903;SDS011;49000;50.698;13.322;2023-08-24T00:03:28;4.30;;;3.90;;
62903;SDS011;49000;50.698;13.322;2023-08-24T00:05:54;6.00;;;5.20;;
62903;SDS011;49000;50.698;13.322;2023-08-24T00:08:19;5.70;;;5.10;;
62903;SDS011;49000;50.698;13.322;2023-08-24T00:10:45;8.00;;;4.73;;
62903;SDS011;49000;50.698;13.322;2023-08-24T00:13:14;5.33;;;4.83;;
62903;SDS011;49000;50.698;13.322;2023-08-24T00:15:39;5.60;;;5.10;;
62903;SDS011;49000;50.698;13.322;2023-08-24T00:18:05;6.33;;;5.57;;
62903;SDS011;49000;50.698;13.322;2023-08-24T00:20:31;5.07;;;4.57;;
62903;SDS011;49000;50.698;13.322;2023-08-24T00:22:57;5.27;;;4.77;;
62903;SDS011;49000;50.698;13.322;2023-08-24T00:25:24;5.23;;;4.73;;
62903;SDS011;49000;50.698;13.322;2023-08-24T00:27:50;5.40;;;4.83;;
62903;SDS011;49000;50.698;13.322;2023-08-24T00:30:19;5.07;;;4.67;;
62903;SDS011;49000;50.698;13.322;2023-08-24T00:32:45;4.80;;;4.30;;
62903;SDS011;49000;50.698;13.322;2023-08-24T00:35:10;4.87;;;4.47;;
62903;SDS011;49000;50.698;13.322;2023-08-24T00:37:36;4.80;;;4.30;;
62903;SDS011;49000;50.698;13.322;2023-08-24T00:40:03;5.20;;;4.50;;
62903;SDS011;49000;50.698;13.322;2023-08-24T00:42:41;5.47;;;4.53;;
62903;SDS011;49000;50.698;13.322;2023-08-24T00:45:08;5.03;;;4.33;;
62903;SDS011;49000;50.698;13.322;2023-08-24T00:47:39;5.67;;;3.77;;
62903;SDS011;49000;50.698;13.322;2023-08-24T00:50:06;5.50;;;4.30;;
62903;SDS011;49000;50.698;13.322;2023-08-24T00:52:33;4.93;;;4.53;;
62903;SDS011;49000;50.698;13.322;2023-08-24T00:54:59;7.73;;;4.40;;
62903;SDS011;49000;50.698;13.322;2023-08-24T00:57:26;5.73;;;5.20;;
62903;SDS011;49000;50.698;13.322;2023-08-24T00:59:52;4.60;;;4.20;;
62903;SDS011;49000;50.698;13.322;2023-08-24T01:02:18;4.80;;;4.40;;
62903;SDS011;49000;50.698;13.322;2023-08-24T01:04:44;5.33;;;4.40;;
62903;SDS011;49000;50.698;13.322;2023-08-24T01:07:12;4.90;;;4.50;;
62903;SDS011;49000;50.698;13.322;2023-08-24T01:09:38;5.53;;;4.90;;
62903;SDS011;49000;50.698;13.322;2023-08-24T01:12:08;5.63;;;4.90;;
62903;SDS011;49000;50.698;13.322;2023-08-24T01:17:24;8.07;;;4.77;;
62903;SDS011;49000;50.698;13.322;2023-08-24T01:19:54;4.87;;;4.47;;
62903;SDS011;49000;50.698;13.322;2023-08-24T01:22:29;4.90;;;4.50;;
62903;SDS011;49000;50.698;13.322;2023-08-24T01:27:54;5.40;;;4.90;;
62903;SDS011;49000;50.698;13.322;2023-08-24T01:30:20;5.20;;;4.70;;
62903;SDS011;49000;50.698;13.322;2023-08-24T01:32:46;5.83;;;5.33;;
62903;SDS011;49000;50.698;13.322;2023-08-24T01:35:11;6.77;;;5.30;;
62903;SDS011;49000;50.698;13.322;2023-08-24T01:37:37;5.97;;;4.93;;
62903;SDS011;49000;50.698;13.322;2023-08-24T01:42:43;5.77;;;5.13;;
62903;SDS011;49000;50.698;13.322;2023-08-24T01:45:22;7.53;;;5.20;;
62903;SDS011;49000;50.698;13.322;2023-08-24T01:47:54;4.97;;;4.53;;
62903;SDS011;49000;50.698;13.322;2023-08-24T01:50:21;4.60;;;4.10;;
62903;SDS011;49000;50.698;13.322;2023-08-24T01:52:47;4.83;;;4.43;;
62903;SDS011;49000;50.698;13.322;2023-08-24T01:55:13;5.00;;;4.60;;
62903;SDS011;49000;50.698;13.322;2023-08-24T01:57:40;4.63;;;4.23;;
62903;SDS011;49000;50.698;13.322;2023-08-24T02:00:05;5.13;;;4.63;;
62903;SDS011;49000;50.698;13.322;2023-08-24T02:02:34;6.53;;;5.03;;
62903;SDS011;49000;50.698;13.322;2023-08-24T02:05:00;5.30;;;4.80;;
62903;SDS011;49000;50.698;13.322;2023-08-24T02:07:26;6.37;;;4.37;;
62903;SDS011;49000;50.698;13.322;2023-08-24T02:09:52;5.13;;;4.57;;
62903;SDS011;49000;50.698;13.322;2023-08-24T02:12:17;5.27;;;4.70;;
62903;SDS011;49000;50.698;13.322;2023-08-24T02:14:43;4.40;;;4.00;;
62903;SDS011;49000;50.698;13.322;2023-08-24T02:17:08;5.07;;;4.53;;
62903;SDS011;49000;50.698;13.322;2023-08-24T02:19:34;5.70;;;5.20;;
62903;SDS011;49000;50.698;13.322;2023-08-24T02:21:59;6.17;;;5.67;;
62903;SDS011;49000;50.698;13.322;2023-08-24T02:24:25;5.20;;;4.80;;
62903;SDS011;49000;50.698;13.322;2023-08-24T02:26:50;5.83;;;4.70;;
62903;SDS011;49000;50.698;13.322;2023-08-24T02:29:16;7.43;;;4.80;;
62903;SDS011;49000;50.698;13.322;2023-08-24T02:31:43;5.07;;;4.57;;
62903;SDS011;49000;50.698;13.322;2023-08-24T02:34:08;7.70;;;4.87;;
62903;SDS011;49000;50.698;13.322;2023-08-24T02:36:34;5.23;;;4.77;;
62903;SDS011;49000;50.698;13.322;2023-08-24T02:39:00;5.07;;;4.40;;
62903;SDS011;49000;50.698;13.322;2023-08-24T02:41:25;6.17;;;4.80;;
62903;SDS011;49000;50.698;13.322;2023-08-24T02:43:51;6.00;;;5.40;;
62903;SDS011;49000;50.698;13.322;2023-08-24T02:46:17;6.10;;;5.43;;
62903;SDS011;49000;50.698;13.322;2023-08-24T02:48:43;6.20;;;5.70;;
62903;SDS011;49000;50.698;13.322;2023-08-24T02:51:09;5.60;;;5.10;;
62903;SDS011;49000;50.698;13.322;2023-08-24T02:53:35;6.00;;;5.50;;
62903;SDS011;49000;50.698;13.322;2023-08-24T02:56:01;6.00;;;5.33;;
62903;SDS011;49000;50.698;13.322;2023-08-24T02:58:28;5.63;;;4.93;;
62903;SDS011;49000;50.698;13.322;2023-08-24T03:00:54;6.87;;;4.83;;
62903;SDS011;49000;50.698;13.322;2023-08-24T03:03:20;5.87;;;5.33;;
62903;SDS011;49000;50.698;13.322;2023-08-24T03:05:59;5.73;;;4.70;;
62903;SDS011;49000;50.698;13.322;2023-08-24T03:08:25;5.93;;;4.90;;
62903;SDS011;49000;50.698;13.322;2023-08-24T03:10:51;5.27;;;4.87;;
62903;SDS011;49000;50.698;13.322;2023-08-24T03:13:17;6.53;;;4.50;;
62903;SDS011;49000;50.698;13.322;2023-08-24T03:15:43;4.97;;;4.47;;
62903;SDS011;49000;50.698;13.322;2023-08-24T03:18:10;5.90;;;4.60;;
62903;SDS011;49000;50.698;13.322;2023-08-24T03:20:37;5.13;;;4.73;;
62903;SDS011;49000;50.698;13.322;2023-08-24T03:23:03;6.07;;;4.73;;
62903;SDS011;49000;50.698;13.322;2023-08-24T03:25:29;5.30;;;4.80;;
62903;SDS011;49000;50.698;13.322;2023-08-24T03:27:56;4.30;;;3.90;;
62903;SDS011;49000;50.698;13.322;2023-08-24T03:30:22;6.67;;;5.43;;
62903;SDS011;49000;50.698;13.322;2023-08-24T03:32:47;5.37;;;4.97;;
62903;SDS011;49000;50.698;13.322;2023-08-24T03:35:13;4.90;;;4.50;;
62903;SDS011;49000;50.698;13.322;2023-08-24T03:37:39;5.77;;;4.53;;
62903;SDS011;49000;50.698;13.322;2023-08-24T03:40:05;4.77;;;4.37;;
62903;SDS011;49000;50.698;13.322;2023-08-24T03:42:31;5.70;;;5.03;;
62903;SDS011;49000;50.698;13.322;2023-08-24T03:44:58;5.50;;;4.70;;
62903;SDS011;49000;50.698;13.322;2023-08-24T03:47:24;6.10;;;4.40;;
62903;SDS011;49000;50.698;13.322;2023-08-24T03:49:50;5.67;;;4.10;;
62903;SDS011;49000;50.698;13.322;2023-08-24T03:52:15;5.87;;;4.17;;
62903;SDS011;49000;50.698;13.322;2023-08-24T03:54:41;5.00;;;4.60;;
62903;SDS011;49000;50.698;13.322;2023-08-24T03:57:07;5.07;;;4.57;;
62903;SDS011;49000;50.698;13.322;2023-08-24T03:59:32;4.97;;;4.57;;
62903;SDS011;49000;50.698;13.322;2023-08-24T04:01:58;5.20;;;4.70;;
62903;SDS011;49000;50.698;13.322;2023-08-24T04:04:27;6.77;;;4.60;;
62903;SDS011;49000;50.698;13.322;2023-08-24T04:06:52;5.10;;;4.60;;
62903;SDS011;49000;50.698;13.322;2023-08-24T04:09:18;5.20;;;4.70;;
62903;SDS011;49000;50.698;13.322;2023-08-24T04:11:43;5.07;;;4.60;;
62903;SDS011;49000;50.698;13.322;2023-08-24T04:14:09;6.23;;;4.93;;
62903;SDS011;49000;50.698;13.322;2023-08-24T04:16:35;6.60;;;5.20;;
62903;SDS011;49000;50.698;13.322;2023-08-24T04:19:00;6.53;;;5.80;;
62903;SDS011;49000;50.698;13.322;2023-08-24T04:21:26;9.63;;;6.40;;
62903;SDS011;49000;50.698;13.322;2023-08-24T04:23:51;5.90;;;5.30;;
62903;SDS011;49000;50.698;13.322;2023-08-24T04:26:17;5.60;;;5.10;;
62903;SDS011;49000;50.698;13.322;2023-08-24T04:28:43;6.10;;;5.47;;
62903;SDS011;49000;50.698;13.322;2023-08-24T04:31:09;6.13;;;5.53;;
62903;SDS011;49000;50.698;13.322;2023-08-24T04:33:35;5.60;;;5.00;;
62903;SDS011;49000;50.698;13.322;2023-08-24T04:36:04;6.70;;;4.93;;
62903;SDS011;49000;50.698;13.322;2023-08-24T04:38:46;6.10;;;5.50;;
62903;SDS011;49000;50.698;13.322;2023-08-24T04:42:09;5.93;;;5.20;;
62903;SDS011;49000;50.698;13.322;2023-08-24T04:44:35;5.10;;;4.47;;
62903;SDS011;49000;50.698;13.322;2023-08-24T04:47:02;6.37;;;5.27;;
62903;SDS011;49000;50.698;13.322;2023-08-24T04:49:39;5.03;;;4.63;;
62903;SDS011;49000;50.698;13.322;2023-08-24T04:52:05;5.80;;;5.30;;
62903;SDS011;49000;50.698;13.322;2023-08-24T04:54:30;5.57;;;5.10;;
62903;SDS011;49000;50.698;13.322;2023-08-24T04:56:57;5.60;;;4.60;;
62903;SDS011;49000;50.698;13.322;2023-08-24T04:59:23;4.97;;;4.47;;
62903;SDS011;49000;50.698;13.322;2023-08-24T05:01:48;7.83;;;5.27;;
62903;SDS011;49000;50.698;13.322;2023-08-24T05:04:14;8.70;;;5.80;;
62903;SDS011;49000;50.698;13.322;2023-08-24T05:06:39;5.50;;;5.00;;
62903;SDS011;49000;50.698;13.322;2023-08-24T05:09:05;5.20;;;4.70;;
62903;SDS011;49000;50.698;13.322;2023-08-24T05:11:30;5.33;;;4.93;;
62903;SDS011;49000;50.698;13.322;2023-08-24T05:13:56;7.10;;;4.90;;
62903;SDS011;49000;50.698;13.322;2023-08-24T05:16:22;5.87;;;5.27;;
62903;SDS011;49000;50.698;13.322;2023-08-24T05:18:47;5.33;;;4.83;;
62903;SDS011;49000;50.698;13.322;2023-08-24T05:21:13;5.17;;;4.70;;
62903;SDS011;49000;50.698;13.322;2023-08-24T05:23:39;5.70;;;5.20;;
62903;SDS011;49000;50.698;13.322;2023-08-24T05:26:04;5.33;;;4.83;;
62903;SDS011;49000;50.698;13.322;2023-08-24T05:28:30;5.57;;;5.07;;
62903;SDS011;49000;50.698;13.322;2023-08-24T05:30:57;5.07;;;4.67;;
62903;SDS011;49000;50.698;13.322;2023-08-24T05:33:23;5.47;;;4.97;;
62903;SDS011;49000;50.698;13.322;2023-08-24T05:35:49;5.20;;;4.80;;
62903;SDS011;49000;50.698;13.322;2023-08-24T05:38:15;5.50;;;5.00;;
62903;SDS011;49000;50.698;13.322;2023-08-24T05:40:42;6.03;;;4.87;;
62903;SDS011;49000;50.698;13.322;2023-08-24T05:43:08;5.87;;;5.37;;
62903;SDS011;49000;50.698;13.322;2023-08-24T05:45:34;5.93;;;5.33;;
62903;SDS011;49000;50.698;13.322;2023-08-24T05:48:00;5.70;;;5.20;;
62903;SDS011;49000;50.698;13.322;2023-08-24T05:50:26;6.03;;;4.90;;
62903;SDS011;49000;50.698;13.322;2023-08-24T05:52:51;4.67;;;4.10;;
62903;SDS011;49000;50.698;13.322;2023-08-24T05:55:17;5.13;;;4.63;;
62903;SDS011;49000;50.698;13.322;2023-08-24T05:57:42;5.03;;;4.53;;
62903;SDS011;49000;50.698;13.322;2023-08-24T06:00:08;5.50;;;5.00;;
62903;SDS011;49000;50.698;13.322;2023-08-24T06:02:35;5.20;;;4.70;;
62903;SDS011;49000;50.698;13.322;2023-08-24T06:05:01;5.57;;;4.93;;
62903;SDS011;49000;50.698;13.322;2023-08-24T06:07:27;5.27;;;4.80;;
62903;SDS011;49000;50.698;13.322;2023-08-24T06:09:53;7.17;;;4.83;;
62903;SDS011;49000;50.698;13.322;2023-08-24T06:12:19;4.80;;;4.40;;
62903;SDS011;49000;50.698;13.322;2023-08-24T06:14:44;5.50;;;5.00;;
62903;SDS011;49000;50.698;13.322;2023-08-24T06:17:09;8.13;;;6.17;;
62903;SDS011;49000;50.698;13.322;2023-08-24T06:19:35;8.83;;;6.10;;
62903;SDS011;49000;50.698;13.322;2023-08-24T06:22:01;5.73;;;5.13;;
62903;SDS011;49000;50.698;13.322;2023-08-24T06:24:26;6.80;;;6.20;;
62903;SDS011;49000;50.698;13.322;2023-08-24T06:26:52;5.00;;;4.50;;
62903;SDS011;49000;50.698;13.322;2023-08-24T06:29:17;5.60;;;5.10;;
62903;SDS011;49000;50.698;13.322;2023-08-24T06:31:42;5.33;;;4.83;;
62903;SDS011;49000;50.698;13.322;2023-08-24T06:34:08;6.43;;;5.23;;
62903;SDS011;49000;50.698;13.322;2023-08-24T06:36:33;6.33;;;5.73;;
62903;SDS011;49000;50.698;13.322;2023-08-24T06:38:59;9.87;;;5.97;;
62903;SDS011;49000;50.698;13.322;2023-08-24T06:41:24;4.97;;;4.50;;
62903;SDS011;49000;50.698;13.322;2023-08-24T06:43:50;8.60;;;5.67;;
62903;SDS011;49000;50.698;13.322;2023-08-24T06:46:15;7.60;;;6.00;;
62903;SDS011;49000;50.698;13.322;2023-08-24T06:48:41;5.33;;;4.40;;
62903;SDS011;49000;50.698;13.322;2023-08-24T06:51:08;5.73;;;5.23;;
62903;SDS011;49000;50.698;13.322;2023-08-24T06:53:34;5.27;;;4.60;;
62903;SDS011;49000;50.698;13.322;2023-08-24T06:56:00;4.90;;;4.40;;
62903;SDS011;49000;50.698;13.322;2023-08-24T06:58:25;5.83;;;3.83;;
62903;SDS011;49000;50.698;13.322;2023-08-24T07:00:51;5.20;;;4.47;;
62903;SDS011;49000;50.698;13.322;2023-08-24T07:03:17;5.73;;;4.10;;
62903;SDS011;49000;50.698;13.322;2023-08-24T07:05:43;4.97;;;4.57;;
62903;SDS011;49000;50.698;13.322;2023-08-24T07:08:09;5.20;;;4.50;;
62903;SDS011;49000;50.698;13.322;2023-08-24T07:10:35;5.80;;;4.47;;
62903;SDS011;49000;50.698;13.322;2023-08-24T07:13:01;4.15;;;3.78;;
62903;SDS011;49000;50.698;13.322;2023-08-24T07:15:26;4.30;;;3.85;;
62903;SDS011;49000;50.698;13.322;2023-08-24T07:17:52;5.70;;;4.00;;
62903;SDS011;49000;50.698;13.322;2023-08-24T07:20:17;4.22;;;3.83;;
62903;SDS011;49000;50.698;13.322;2023-08-24T07:22:44;3.95;;;3.65;;
62903;SDS011;49000;50.698;13.322;2023-08-24T07:25:10;4.28;;;3.88;;
62903;SDS011;49000;50.698;13.322;2023-08-24T07:27:37;8.20;;;3.70;;
62903;SDS011;49000;50.698;13.322;2023-08-24T07:30:03;4.85;;;3.45;;
62903;SDS011;49000;50.698;13.322;2023-08-24T07:32:32;3.72;;;2.75;;
62903;SDS011;49000;50.698;13.322;2023-08-24T07:34:58;4.32;;;3.80;;
62903;SDS011;49000;50.698;13.322;2023-08-24T07:37:26;3.70;;;3.40;;
62903;SDS011;49000;50.698;13.322;2023-08-24T07:39:52;5.13;;;3.88;;
62903;SDS011;49000;50.698;13.322;2023-08-24T07:42:21;6.30;;;3.88;;
62903;SDS011;49000;50.698;13.322;2023-08-24T07:44:47;6.10;;;3.72;;
62903;SDS011;49000;50.698;13.322;2023-08-24T07:47:13;4.60;;;3.88;;
62903;SDS011;49000;50.698;13.322;2023-08-24T07:49:39;5.03;;;3.97;;
62903;SDS011;49000;50.698;13.322;2023-08-24T07:52:09;4.88;;;3.63;;
62903;SDS011;49000;50.698;13.322;2023-08-24T07:54:37;3.88;;;3.55;;
62903;SDS011;49000;50.698;13.322;2023-08-24T07:57:04;3.53;;;3.22;;
62903;SDS011;49000;50.698;13.322;2023-08-24T07:59:30;3.88;;;3.42;;
62903;SDS011;49000;50.698;13.322;2023-08-24T08:01:55;6.63;;;3.60;;
62903;SDS011;49000;50.698;13.322;2023-08-24T08:04:21;6.30;;;3.50;;
62903;SDS011;49000;50.698;13.322;2023-08-24T08:06:46;3.67;;;3.38;;
62903;SDS011;49000;50.698;13.322;2023-08-24T08:09:12;4.93;;;4.05;;
62903;SDS011;49000;50.698;13.322;2023-08-24T08:11:38;3.83;;;3.33;;
62903;SDS011;49000;50.698;13.322;2023-08-24T08:14:03;4.40;;;3.92;;
62903;SDS011;49000;50.698;13.322;2023-08-24T08:16:29;4.30;;;3.90;;
62903;SDS011;49000;50.698;13.322;2023-08-24T08:18:55;4.70;;;3.72;;
62903;SDS011;49000;50.698;13.322;2023-08-24T08:21:20;4.88;;;3.80;;
62903;SDS011;49000;50.698;13.322;2023-08-24T08:23:48;5.93;;;3.28;;
62903;SDS011;49000;50.698;13.322;2023-08-24T08:26:14;5.07;;;3.45;;
62903;SDS011;49000;50.698;13.322;2023-08-24T08:28:41;3.90;;;3.35;;
62903;SDS011;49000;50.698;13.322;2023-08-24T08:31:07;5.63;;;3.38;;
62903;SDS011;49000;50.698;13.322;2023-08-24T08:33:32;3.75;;;3.33;;
62903;SDS011;49000;50.698;13.322;2023-08-24T08:35:58;4.93;;;3.97;;
62903;SDS011;49000;50.698;13.322;2023-08-24T08:38:23;6.53;;;3.90;;
62903;SDS011;49000;50.698;13.322;2023-08-24T08:40:51;4.60;;;4.18;;
62903;SDS011;49000;50.698;13.322;2023-08-24T08:43:27;4.88;;;3.90;;
62903;SDS011;49000;50.698;13.322;2023-08-24T08:45:53;5.40;;;3.75;;
62903;SDS011;49000;50.698;13.322;2023-08-24T08:48:21;4.32;;;3.50;;
62903;SDS011;49000;50.698;13.322;2023-08-24T08:50:50;4.60;;;4.00;;
62903;SDS011;49000;50.698;13.322;2023-08-24T08:53:20;5.78;;;3.85;;
62903;SDS011;49000;50.698;13.322;2023-08-24T08:55:47;5.45;;;4.00;;
62903;SDS011;49000;50.698;13.322;2023-08-24T08:58:15;5.85;;;4.07;;
62903;SDS011;49000;50.698;13.322;2023-08-24T09:00:40;4.07;;;3.58;;
62903;SDS011;49000;50.698;13.322;2023-08-24T09:03:06;6.07;;;3.97;;
62903;SDS011;49000;50.698;13.322;2023-08-24T09:05:34;6.93;;;4.32;;
62903;SDS011;49000;50.698;13.322;2023-08-24T09:08:02;8.70;;;4.40;;
62903;SDS011;49000;50.698;13.322;2023-08-24T09:10:29;4.78;;;4.30;;
62903;SDS011;49000;50.698;13.322;2023-08-24T09:12:55;6.20;;;4.10;;
62903;SDS011;49000;50.698;13.322;2023-08-24T09:15:24;4.47;;;3.88;;
62903;SDS011;49000;50.698;13.322;2023-08-24T09:17:54;3.58;;;3.28;;
62903;SDS011;49000;50.698;13.322;2023-08-24T09:20:21;5.85;;;3.78;;
62903;SDS011;49000;50.698;13.322;2023-08-24T09:22:47;6.00;;;3.83;;
62903;SDS011;49000;50.698;13.322;2023-08-24T09:25:12;3.67;;;3.38;;
62903;SDS011;49000;50.698;13.322;2023-08-24T09:27:38;4.35;;;3.95;;
62903;SDS011;49000;50.698;13.322;2023-08-24T09:30:03;4.20;;;3.80;;
62903;SDS011;49000;50.698;13.322;2023-08-24T09:32:31;6.88;;;4.00;;
62903;SDS011;49000;50.698;13.322;2023-08-24T09:35:01;4.63;;;3.85;;
62903;SDS011;49000;50.698;13.322;2023-08-24T09:37:36;3.83;;;3.53;;
62903;SDS011;49000;50.698;13.322;2023-08-24T09:40:06;4.18;;;3.78;;
62903;SDS011;49000;50.698;13.322;2023-08-24T09:42:39;5.57;;;3.63;;
62903;SDS011;49000;50.698;13.322;2023-08-24T09:45:07;3.78;;;3.47;;
62903;SDS011;49000;50.698;13.322;2023-08-24T09:47:36;4.15;;;3.75;;
62903;SDS011;49000;50.698;13.322;2023-08-24T09:50:02;4.18;;;3.78;;
62903;SDS011;49000;50.698;13.322;2023-08-24T09:52:32;5.95;;;3.55;;
62903;SDS011;49000;50.698;13.322;2023-08-24T09:55:02;5.18;;;4.13;;
62903;SDS011;49000;50.698;13.322;2023-08-24T09:57:34;5.35;;;4.20;;
62903;SDS011;49000;50.698;13.322;2023-08-24T10:00:05;4.35;;;3.78;;
62903;SDS011;49000;50.698;13.322;2023-08-24T10:02:44;6.35;;;3.72;;
62903;SDS011;49000;50.698;13.322;2023-08-24T10:05:16;10.77;;;3.70;;
62903;SDS011;49000;50.698;13.322;2023-08-24T10:07:46;6.97;;;4.05;;
62903;SDS011;49000;50.698;13.322;2023-08-24T10:10:16;6.03;;;4.05;;
62903;SDS011;49000;50.698;13.322;2023-08-24T10:12:46;4.63;;;4.07;;
62903;SDS011;49000;50.698;13.322;2023-08-24T10:15:15;4.63;;;3.83;;
62903;SDS011;49000;50.698;13.322;2023-08-24T10:17:42;4.13;;;3.83;;
62903;SDS011;49000;50.698;13.322;2023-08-24T10:20:10;5.05;;;3.83;;
62903;SDS011;49000;50.698;13.322;2023-08-24T10:22:36;4.80;;;3.80;;
62903;SDS011;49000;50.698;13.322;2023-08-24T10:25:05;5.25;;;3.88;;
62903;SDS011;49000;50.698;13.322;2023-08-24T10:27:32;6.30;;;3.33;;
62903;SDS011;49000;50.698;13.322;2023-08-24T10:29:58;4.97;;;3.60;;
62903;SDS011;49000;50.698;13.322;2023-08-24T10:32:23;4.05;;;3.28;;
62903;SDS011;49000;50.698;13.322;2023-08-24T10:34:50;5.35;;;4.10;;
62903;SDS011;49000;50.698;13.322;2023-08-24T10:37:16;4.00;;;3.60;;
62903;SDS011;49000;50.698;13.322;2023-08-24T10:39:49;4.53;;;3.67;;
62903;SDS011;49000;50.698;13.322;2023-08-24T10:42:15;4.10;;;3.70;;
62903;SDS011;49000;50.698;13.322;2023-08-24T10:44:44;5.55;;;4.15;;
62903;SDS011;49000;50.698;13.322;2023-08-24T10:47:12;5.45;;;3.78;;
62903;SDS011;49000;50.698;13.322;2023-08-24T10:49:59;3.92;;;3.58;;
62903;SDS011;49000;50.698;13.322;2023-08-24T10:52:38;4.55;;;4.00;;
62903;SDS011;49000;50.698;13.322;2023-08-24T10:55:23;4.00;;;3.60;;
62903;SDS011;49000;50.698;13.322;2023-08-24T10:57:56;4.35;;;3.60;;
62903;SDS011;49000;50.698;13.322;2023-08-24T11:00:25;6.13;;;3.40;;
62903;SDS011;49000;50.698;13.322;2023-08-24T11:02:54;4.22;;;3.83;;
62903;SDS011;49000;50.698;13.322;2023-08-24T11:05:22;4.90;;;4.15;;
62903;SDS011;49000;50.698;13.322;2023-08-24T11:08:01;4.72;;;3.75;;
62903;SDS011;49000;50.698;13.322;2023-08-24T11:10:44;5.45;;;3.83;;
62903;SDS011;49000;50.698;13.322;2023-08-24T11:15:42;5.50;;;4.38;;
62903;SDS011;49000;50.698;13.322;2023-08-24T11:18:12;4.72;;;4.00;;
62903;SDS011;49000;50.698;13.322;2023-08-24T11:20:47;4.47;;;3.75;;
62903;SDS011;49000;50.698;13.322;2023-08-24T11:23:33;5.68;;;3.75;;
62903;SDS011;49000;50.698;13.322;2023-08-24T11:26:00;4.40;;;4.00;;
62903;SDS011;49000;50.698;13.322;2023-08-24T11:28:29;3.90;;;3.55;;
62903;SDS011;49000;50.698;13.322;2023-08-24T11:30:56;4.80;;;3.90;;
62903;SDS011;49000;50.698;13.322;2023-08-24T11:33:27;3.85;;;3.55;;
62903;SDS011;49000;50.698;13.322;2023-08-24T11:35:53;5.72;;;4.00;;
62903;SDS011;49000;50.698;13.322;2023-08-24T11:38:19;3.33;;;3.03;;
62903;SDS011;49000;50.698;13.322;2023-08-24T11:40:45;4.97;;;3.45;;
62903;SDS011;49000;50.698;13.322;2023-08-24T11:43:10;4.28;;;3.88;;
62903;SDS011;49000;50.698;13.322;2023-08-24T11:45:36;4.93;;;3.80;;
62903;SDS011;49000;50.698;13.322;2023-08-24T11:48:04;6.22;;;4.03;;
62903;SDS011;49000;50.698;13.322;2023-08-24T11:50:29;4.43;;;3.40;;
62903;SDS011;49000;50.698;13.322;2023-08-24T11:52:56;5.90;;;3.97;;
62903;SDS011;49000;50.698;13.322;2023-08-24T11:55:22;4.97;;;3.72;;
62903;SDS011;49000;50.698;13.322;2023-08-24T11:57:48;5.45;;;3.67;;
62903;SDS011;49000;50.698;13.322;2023-08-24T12:00:14;5.03;;;3.50;;
62903;SDS011;49000;50.698;13.322;2023-08-24T12:02:41;7.28;;;3.80;;
62903;SDS011;49000;50.698;13.322;2023-08-24T12:05:07;9.60;;;3.80;;
62903;SDS011;49000;50.698;13.322;2023-08-24T12:07:44;4.47;;;3.83;;
62903;SDS011;49000;50.698;13.322;2023-08-24T12:10:10;5.70;;;3.58;;
62903;SDS011;49000;50.698;13.322;2023-08-24T12:12:37;7.70;;;4.00;;
62903;SDS011;49000;50.698;13.322;2023-08-24T12:15:03;4.40;;;3.88;;
62903;SDS011;49000;50.698;13.322;2023-08-24T12:17:30;5.68;;;3.47;;
62903;SDS011;49000;50.698;13.322;2023-08-24T12:19:57;6.18;;;3.90;;
62903;SDS011;49000;50.698;13.322;2023-08-24T12:22:25;4.20;;;3.50;;
62903;SDS011;49000;50.698;13.322;2023-08-24T12:24:50;5.20;;;3.70;;
62903;SDS011;49000;50.698;13.322;2023-08-24T12:27:19;4.30;;;3.70;;
62903;SDS011;49000;50.698;13.322;2023-08-24T12:29:46;5.90;;;3.40;;
62903;SDS011;49000;50.698;13.322;2023-08-24T12:32:12;4.82;;;3.70;;
62903;SDS011;49000;50.698;13.322;2023-08-24T12:34:37;7.70;;;3.47;;
62903;SDS011;49000;50.698;13.322;2023-08-24T12:37:03;6.32;;;3.85;;
62903;SDS011;49000;50.698;13.322;2023-08-24T12:39:32;4.85;;;3.40;;
62903;SDS011;49000;50.698;13.322;2023-08-24T12:42:06;4.18;;;3.30;;
62903;SDS011;49000;50.698;13.322;2023-08-24T12:44:32;4.57;;;3.22;;
62903;SDS011;49000;50.698;13.322;2023-08-24T12:47:01;6.07;;;3.58;;
62903;SDS011;49000;50.698;13.322;2023-08-24T12:49:27;4.50;;;3.28;;
62903;SDS011;49000;50.698;13.322;2023-08-24T12:51:53;4.35;;;3.50;;
62903;SDS011;49000;50.698;13.322;2023-08-24T12:54:18;4.25;;;3.70;;
62903;SDS011;49000;50.698;13.322;2023-08-24T12:56:44;4.22;;;3.70;;
62903;SDS011;49000;50.698;13.322;2023-08-24T12:59:10;7.05;;;3.38;;
62903;SDS011;49000;50.698;13.322;2023-08-24T13:01:36;3.65;;;2.92;;
62903;SDS011;49000;50.698;13.322;2023-08-24T13:04:03;4.40;;;3.42;;
62903;SDS011;49000;50.698;13.322;2023-08-24T13:06:29;7.38;;;3.42;;
62903;SDS011;49000;50.698;13.322;2023-08-24T13:08:54;9.45;;;3.40;;
62903;SDS011;49000;50.698;13.322;2023-08-24T13:11:20;4.10;;;3.50;;
62903;SDS011;49000;50.698;13.322;2023-08-24T13:13:47;4.28;;;3.58;;
62903;SDS011;49000;50.698;13.322;2023-08-24T13:16:13;4.78;;;3.45;;
62903;SDS011;49000;50.698;13.322;2023-08-24T13:18:39;7.00;;;3.67;;
62903;SDS011;49000;50.698;13.322;2023-08-24T13:21:05;3.50;;;3.20;;
62903;SDS011;49000;50.698;13.322;2023-08-24T13:23:30;8.10;;;3.67;;
62903;SDS011;49000;50.698;13.322;2023-08-24T13:25:59;7.10;;;3.50;;
62903;SDS011;49000;50.698;13.322;2023-08-24T13:28:24;6.28;;;3.60;;
62903;SDS011;49000;50.698;13.322;2023-08-24T13:30:50;3.55;;;2.88;;
62903;SDS011;49000;50.698;13.322;2023-08-24T13:33:16;8.18;;;3.20;;
62903;SDS011;49000;50.698;13.322;2023-08-24T13:35:42;4.65;;;3.30;;
62903;SDS011;49000;50.698;13.322;2023-08-24T13:38:07;5.25;;;3.35;;
62903;SDS011;49000;50.698;13.322;2023-08-24T13:40:33;4.65;;;3.65;;
62903;SDS011;49000;50.698;13.322;2023-08-24T13:42:58;3.67;;;3.38;;
62903;SDS011;49000;50.698;13.322;2023-08-24T13:45:24;4.93;;;3.35;;
62903;SDS011;49000;50.698;13.322;2023-08-24T13:47:49;4.93;;;3.42;;
62903;SDS011;49000;50.698;13.322;2023-08-24T13:50:15;7.82;;;3.38;;
62903;SDS011;49000;50.698;13.322;2023-08-24T13:52:40;6.70;;;3.42;;
62903;SDS011;49000;50.698;13.322;2023-08-24T13:55:06;5.88;;;3.65;;
62903;SDS011;49000;50.698;13.322;2023-08-24T13:57:32;4.25;;;3.40;;
62903;SDS011;49000;50.698;13.322;2023-08-24T13:59:58;4.70;;;3.25;;
62903;SDS011;49000;50.698;13.322;2023-08-24T14:02:24;4.18;;;3.17;;
62903;SDS011;49000;50.698;13.322;2023-08-24T14:04:50;5.32;;;3.60;;
62903;SDS011;49000;50.698;13.322;2023-08-24T14:07:16;3.58;;;3.28;;
62903;SDS011;49000;50.698;13.322;2023-08-24T14:09:41;3.65;;;3.35;;
62903;SDS011;49000;50.698;13.322;2023-08-24T14:12:07;5.15;;;3.30;;
62903;SDS011;49000;50.698;13.322;2023-08-24T14:14:32;3.90;;;3.50;;
62903;SDS011;49000;50.698;13.322;2023-08-24T14:16:58;7.28;;;3.30;;
62903;SDS011;49000;50.698;13.322;2023-08-24T14:19:23;3.63;;;2.80;;
62903;SDS011;49000;50.698;13.322;2023-08-24T14:21:49;4.43;;;3.25;;
62903;SDS011;49000;50.698;13.322;2023-08-24T14:24:15;3.03;;;2.72;;
62903;SDS011;49000;50.698;13.322;2023-08-24T14:26:41;5.53;;;3.30;;
62903;SDS011;49000;50.698;13.322;2023-08-24T14:29:10;3.35;;;3.05;;
62903;SDS011;49000;50.698;13.322;2023-08-24T14:31:36;3.47;;;3.17;;
62903;SDS011;49000;50.698;13.322;2023-08-24T14:34:02;4.15;;;3.00;;
62903;SDS011;49000;50.698;13.322;2023-08-24T14:36:28;4.90;;;3.05;;
62903;SDS011;49000;50.698;13.322;2023-08-24T14:38:54;5.13;;;2.92;;
62903;SDS011;49000;50.698;13.322;2023-08-24T14:41:20;4.10;;;3.00;;
62903;SDS011;49000;50.698;13.322;2023-08-24T14:43:46;3.92;;;2.90;;